sensor_id;sensor_type;location;lat;lon;timestamp;pressure;altitude;pressure_sealevel;temperature;humidity
79136;BME280;68533;51.090;17.216;2023-08-31T00:00:00;99296.38;;;12.82;100.00
79136;BME280;68533;51.090;17.216;2023-08-31T00:02:26;99287.75;;;12.84;100.00
79136;BME280;68533;51.090;17.216;2023-08-31T00:04:52;99286.97;;;12.75;100.00
79136;BME280;68533;51.090;17.216;2023-08-31T00:07:21;99294.28;;;12.79;100.00
79136;BME280;68533;51.090;17.216;2023-08-31T00:09:47;99287.13;;;12.78;100.00
79136;BME280;68533;51.090;17.216;2023-08-31T00:12:13;99288.25;;;12.77;100.00
79136;BME280;68533;51.090;17.216;2023-08-31T00:14:40;99290.69;;;12.79;100.00
79136;BME280;68533;51.090;17.216;2023-08-31T00:17:05;99295.09;;;12.80;100.00
79136;BME280;68533;51.090;17.216;2023-08-31T00:19:32;99290.03;;;12.82;100.00
79136;BME280;68533;51.090;17.216;2023-08-31T00:21:58;99292.47;;;12.83;100.00
79136;BME280;68533;51.090;17.216;2023-08-31T00:24:24;99296.03;;;12.84;100.00
79136;BME280;68533;51.090;17.216;2023-08-31T00:26:55;99297.84;;;12.89;100.00
79136;BME280;68533;51.090;17.216;2023-08-31T00:29:21;99290.22;;;12.86;100.00
79136;BME280;68533;51.090;17.216;2023-08-31T00:31:48;99295.09;;;12.89;100.00
79136;BME280;68533;51.090;17.216;2023-08-31T00:34:17;99282.56;;;12.91;100.00
79136;BME280;68533;51.090;17.216;2023-08-31T00:36:43;99281.09;;;12.94;100.00
79136;BME280;68533;51.090;17.216;2023-08-31T00:39:09;99273.47;;;12.99;100.00
79136;BME280;68533;51.090;17.216;2023-08-31T00:41:36;99279.97;;;12.95;100.00
79136;BME280;68533;51.090;17.216;2023-08-31T00:44:03;99278.66;;;12.92;100.00
79136;BME280;68533;51.090;17.216;2023-08-31T00:46:34;99274.59;;;12.90;100.00
79136;BME280;68533;51.090;17.216;2023-08-31T00:49:01;99278.53;;;12.89;100.00
79136;BME280;68533;51.090;17.216;2023-08-31T00:51:30;99272.34;;;12.92;100.00
79136;BME280;68533;51.090;17.216;2023-08-31T00:53:57;99270.72;;;12.91;100.00
79136;BME280;68533;51.090;17.216;2023-08-31T00:56:24;99272.66;;;12.90;100.00
79136;BME280;68533;51.090;17.216;2023-08-31T00:58:52;99269.44;;;12.97;100.00
79136;BME280;68533;51.090;17.216;2023-08-31T01:03:56;99271.72;;;12.86;100.00
79136;BME280;68533;51.090;17.216;2023-08-31T01:07:41;99263.44;;;12.86;100.00
79136;BME280;68533;51.090;17.216;2023-08-31T01:10:11;99270.72;;;12.82;100.00
79136;BME280;68533;51.090;17.216;2023-08-31T01:12:52;99263.25;;;12.82;100.00
79136;BME280;68533;51.090;17.216;2023-08-31T01:15:21;99265.06;;;12.78;100.00
79136;BME280;68533;51.090;17.216;2023-08-31T01:18:02;99271.56;;;12.74;100.00
79136;BME280;68533;51.090;17.216;2023-08-31T01:20:50;99277.41;;;12.72;100.00
79136;BME280;68533;51.090;17.216;2023-08-31T01:23:19;99284.22;;;12.66;100.00
79136;BME280;68533;51.090;17.216;2023-08-31T01:25:47;99291.34;;;12.67;100.00
79136;BME280;68533;51.090;17.216;2023-08-31T01:28:14;99284.88;;;12.72;100.00
79136;BME280;68533;51.090;17.216;2023-08-31T01:30:40;99287.31;;;12.65;100.00
79136;BME280;68533;51.090;17.216;2023-08-31T01:33:10;99286.31;;;12.61;100.00
79136;BME280;68533;51.090;17.216;2023-08-31T01:35:43;99282.75;;;12.60;100.00
79136;BME280;68533;51.090;17.216;2023-08-31T01:38:15;99281.94;;;12.42;100.00
79136;BME280;68533;51.090;17.216;2023-08-31T01:40:54;99292.00;;;12.38;100.00
79136;BME280;68533;51.090;17.216;2023-08-31T01:43:22;99282.09;;;12.29;100.00
79136;BME280;68533;51.090;17.216;2023-08-31T01:45:49;99279.50;;;12.24;100.00
79136;BME280;68533;51.090;17.216;2023-08-31T01:48:16;99282.91;;;12.21;100.00
79136;BME280;68533;51.090;17.216;2023-08-31T01:50:42;99291.00;;;12.17;100.00
79136;BME280;68533;51.090;17.216;2023-08-31T01:53:09;99296.34;;;12.14;100.00
79136;BME280;68533;51.090;17.216;2023-08-31T01:55:35;99290.97;;;12.09;100.00
79136;BME280;68533;51.090;17.216;2023-08-31T01:58:03;99304.28;;;12.07;100.00
79136;BME280;68533;51.090;17.216;2023-08-31T02:00:29;99293.09;;;12.03;100.00
79136;BME280;68533;51.090;17.216;2023-08-31T02:02:55;99292.75;;;12.04;100.00
79136;BME280;68533;51.090;17.216;2023-08-31T02:05:21;99283.38;;;12.05;100.00
79136;BME280;68533;51.090;17.216;2023-08-31T02:07:47;99294.06;;;12.07;100.00
79136;BME280;68533;51.090;17.216;2023-08-31T02:10:13;99284.34;;;12.10;100.00
79136;BME280;68533;51.090;17.216;2023-08-31T02:12:39;99294.22;;;12.11;100.00
79136;BME280;68533;51.090;17.216;2023-08-31T02:15:05;99295.03;;;12.11;100.00
79136;BME280;68533;51.090;17.216;2023-08-31T02:17:33;99289.84;;;12.10;100.00
79136;BME280;68533;51.090;17.216;2023-08-31T02:20:00;99292.75;;;12.04;100.00
79136;BME280;68533;51.090;17.216;2023-08-31T02:22:29;99292.44;;;11.97;100.00
79136;BME280;68533;51.090;17.216;2023-08-31T02:24:55;99289.84;;;11.92;100.00
79136;BME280;68533;51.090;17.216;2023-08-31T02:27:21;99288.69;;;11.85;100.00
79136;BME280;68533;51.090;17.216;2023-08-31T02:29:50;99294.81;;;11.82;100.00
79136;BME280;68533;51.090;17.216;2023-08-31T02:32:15;99296.78;;;11.90;100.00
79136;BME280;68533;51.090;17.216;2023-08-31T02:34:42;99300.19;;;11.95;100.00
79136;BME280;68533;51.090;17.216;2023-08-31T02:37:07;99300.19;;;11.95;100.00
79136;BME280;68533;51.090;17.216;2023-08-31T02:39:36;99298.91;;;11.93;100.00
79136;BME280;68533;51.090;17.216;2023-08-31T02:42:02;99290.47;;;11.89;100.00
79136;BME280;68533;51.090;17.216;2023-08-31T02:44:31;99290.47;;;11.89;100.00
79136;BME280;68533;51.090;17.216;2023-08-31T02:46:57;99293.22;;;11.89;100.00
79136;BME280;68533;51.090;17.216;2023-08-31T02:49:23;99287.38;;;11.91;100.00
79136;BME280;68533;51.090;17.216;2023-08-31T02:51:49;99289.97;;;11.87;100.00
79136;BME280;68533;51.090;17.216;2023-08-31T02:54:16;99290.28;;;11.86;100.00
79136;BME280;68533;51.090;17.216;2023-08-31T02:56:43;99288.34;;;11.86;100.00
79136;BME280;68533;51.090;17.216;2023-08-31T02:59:09;99287.50;;;11.86;100.00
79136;BME280;68533;51.090;17.216;2023-08-31T03:01:35;99289.34;;;11.90;100.00
79136;BME280;68533;51.090;17.216;2023-08-31T03:04:01;99286.38;;;11.87;100.00
79136;BME280;68533;51.090;17.216;2023-08-31T03:06:27;99287.53;;;11.94;100.00
79136;BME280;68533;51.090;17.216;2023-08-31T03:08:54;99297.28;;;11.92;100.00
79136;BME280;68533;51.090;17.216;2023-08-31T03:11:21;99289.50;;;11.85;100.00
79136;BME280;68533;51.090;17.216;2023-08-31T03:13:48;99291.59;;;11.88;100.00
79136;BME280;68533;51.090;17.216;2023-08-31T03:16:14;99291.91;;;11.87;100.00
79136;BME280;68533;51.090;17.216;2023-08-31T03:18:40;99285.41;;;11.83;100.00
79136;BME280;68533;51.090;17.216;2023-08-31T03:21:06;99294.50;;;11.83;100.00
79136;BME280;68533;51.090;17.216;2023-08-31T03:23:32;99294.31;;;11.80;100.00
79136;BME280;68533;51.090;17.216;2023-08-31T03:25:58;99293.84;;;11.78;100.00
79136;BME280;68533;51.090;17.216;2023-08-31T03:28:24;99292.31;;;11.72;100.00
79136;BME280;68533;51.090;17.216;2023-08-31T03:30:54;99292.53;;;11.75;100.00
79136;BME280;68533;51.090;17.216;2023-08-31T03:33:21;99294.63;;;11.78;100.00
79136;BME280;68533;51.090;17.216;2023-08-31T03:35:47;99300.13;;;11.78;100.00
79136;BME280;68533;51.090;17.216;2023-08-31T03:38:13;99293.03;;;11.77;100.00
79136;BME280;68533;51.090;17.216;2023-08-31T03:40:39;99291.56;;;11.80;100.00
79136;BME280;68533;51.090;17.216;2023-08-31T03:43:05;99302.91;;;11.87;100.00
79136;BME280;68533;51.090;17.216;2023-08-31T03:45:31;99294.81;;;11.82;100.00
79136;BME280;68533;51.090;17.216;2023-08-31T03:47:59;99294.34;;;11.88;100.00
79136;BME280;68533;51.090;17.216;2023-08-31T03:50:28;99299.53;;;11.90;100.00
79136;BME280;68533;51.090;17.216;2023-08-31T03:52:59;99302.75;;;11.83;100.00
79136;BME280;68533;51.090;17.216;2023-08-31T03:55:25;99307.91;;;11.76;100.00
79136;BME280;68533;51.090;17.216;2023-08-31T03:57:52;99299.97;;;11.75;100.00
79136;BME280;68533;51.090;17.216;2023-08-31T04:00:20;99299.97;;;11.75;100.00
79136;BME280;68533;51.090;17.216;2023-08-31T04:02:46;99291.50;;;11.71;100.00
79136;BME280;68533;51.090;17.216;2023-08-31T04:05:14;99290.22;;;11.68;100.00
79136;BME280;68533;51.090;17.216;2023-08-31T04:07:44;99291.66;;;11.66;100.00
79136;BME280;68533;51.090;17.216;2023-08-31T04:10:10;99290.84;;;11.65;100.00
79136;BME280;68533;51.090;17.216;2023-08-31T04:12:36;99295.06;;;11.72;100.00
79136;BME280;68533;51.090;17.216;2023-08-31T04:15:03;99292.00;;;11.73;100.00
79136;BME280;68533;51.090;17.216;2023-08-31T04:17:31;99297.16;;;11.66;100.00
79136;BME280;68533;51.090;17.216;2023-08-31T04:19:57;99298.78;;;11.67;100.00
79136;BME280;68533;51.090;17.216;2023-08-31T04:22:26;99301.38;;;11.72;100.00
79136;BME280;68533;51.090;17.216;2023-08-31T04:25:15;99296.03;;;11.67;100.00
79136;BME280;68533;51.090;17.216;2023-08-31T04:27:56;99299.97;;;11.75;100.00
79136;BME280;68533;51.090;17.216;2023-08-31T04:30:25;99298.53;;;11.77;100.00
79136;BME280;68533;51.090;17.216;2023-08-31T04:32:52;99300.94;;;11.79;100.00
79136;BME280;68533;51.090;17.216;2023-08-31T04:35:18;99302.25;;;11.81;100.00
79136;BME280;68533;51.090;17.216;2023-08-31T04:37:44;99312.47;;;11.81;100.00
79136;BME280;68533;51.090;17.216;2023-08-31T04:40:11;99309.09;;;11.84;100.00
79136;BME280;68533;51.090;17.216;2023-08-31T04:42:38;99310.25;;;11.91;100.00
79136;BME280;68533;51.090;17.216;2023-08-31T04:45:04;99300.53;;;12.02;100.00
79136;BME280;68533;51.090;17.216;2023-08-31T04:47:36;99300.53;;;12.02;100.00
79136;BME280;68533;51.090;17.216;2023-08-31T04:50:14;99299.41;;;12.03;100.00
79136;BME280;68533;51.090;17.216;2023-08-31T04:52:44;99296.16;;;12.10;100.00
79136;BME280;68533;51.090;17.216;2023-08-31T04:55:12;99297.00;;;12.11;100.00
79136;BME280;68533;51.090;17.216;2023-08-31T04:57:39;99304.28;;;12.07;100.00
79136;BME280;68533;51.090;17.216;2023-08-31T05:00:19;99307.38;;;12.14;100.00
79136;BME280;68533;51.090;17.216;2023-08-31T05:03:15;99309.13;;;12.10;100.00
79136;BME280;68533;51.090;17.216;2023-08-31T05:05:57;99304.13;;;12.12;100.00
79136;BME280;68533;51.090;17.216;2023-08-31T05:08:29;99313.34;;;12.16;100.00
79136;BME280;68533;51.090;17.216;2023-08-31T05:11:02;99312.72;;;12.19;100.00
79136;BME280;68533;51.090;17.216;2023-08-31T05:13:34;99315.50;;;12.27;100.00
79136;BME280;68533;51.090;17.216;2023-08-31T05:16:13;99332.22;;;12.39;100.00
79136;BME280;68533;51.090;17.216;2023-08-31T05:18:43;99327.53;;;12.49;100.00
79136;BME280;68533;51.090;17.216;2023-08-31T05:21:11;99321.53;;;12.64;100.00
79136;BME280;68533;51.090;17.216;2023-08-31T05:23:37;99322.66;;;12.71;100.00
79136;BME280;68533;51.090;17.216;2023-08-31T05:26:04;99325.91;;;12.82;100.00
79136;BME280;68533;51.090;17.216;2023-08-31T05:28:30;99331.09;;;12.92;100.00
79136;BME280;68533;51.090;17.216;2023-08-31T05:30:57;99335.16;;;13.03;100.00
79136;BME280;68533;51.090;17.216;2023-08-31T05:33:24;99347.97;;;13.25;100.00
79136;BME280;68533;51.090;17.216;2023-08-31T05:35:54;99341.09;;;13.48;100.00
79136;BME280;68533;51.090;17.216;2023-08-31T05:38:21;99350.94;;;13.67;99.84
79136;BME280;68533;51.090;17.216;2023-08-31T05:40:47;99354.53;;;14.05;100.00
79136;BME280;68533;51.090;17.216;2023-08-31T05:43:13;99358.09;;;14.44;97.47
79136;BME280;68533;51.090;17.216;2023-08-31T05:45:41;99356.53;;;14.55;97.14
79136;BME280;68533;51.090;17.216;2023-08-31T05:48:08;99364.72;;;14.72;95.94
79136;BME280;68533;51.090;17.216;2023-08-31T05:50:34;99367.22;;;14.86;95.13
79136;BME280;68533;51.090;17.216;2023-08-31T05:53:03;99364.78;;;14.84;95.41
79136;BME280;68533;51.090;17.216;2023-08-31T05:55:29;99368.16;;;14.69;93.51
79136;BME280;68533;51.090;17.216;2023-08-31T05:57:56;99366.13;;;14.57;93.60
79136;BME280;68533;51.090;17.216;2023-08-31T06:00:21;99372.84;;;14.48;93.70
79136;BME280;68533;51.090;17.216;2023-08-31T06:02:48;99381.16;;;14.48;93.73
79136;BME280;68533;51.090;17.216;2023-08-31T06:05:14;99384.91;;;14.72;93.96
79136;BME280;68533;51.090;17.216;2023-08-31T06:07:43;99381.16;;;14.68;93.52
79136;BME280;68533;51.090;17.216;2023-08-31T06:10:09;99377.31;;;14.61;93.62
79136;BME280;68533;51.090;17.216;2023-08-31T06:12:35;99388.78;;;14.51;94.08
79136;BME280;68533;51.090;17.216;2023-08-31T06:15:02;99391.69;;;14.54;94.24
79136;BME280;68533;51.090;17.216;2023-08-31T06:17:29;99392.81;;;14.53;94.57
79136;BME280;68533;51.090;17.216;2023-08-31T06:19:55;99394.28;;;14.59;94.21
79136;BME280;68533;51.090;17.216;2023-08-31T06:22:22;99394.06;;;14.64;94.40
79136;BME280;68533;51.090;17.216;2023-08-31T06:24:50;99397.72;;;14.77;93.73
79136;BME280;68533;51.090;17.216;2023-08-31T06:27:18;99394.22;;;15.09;92.36
79136;BME280;68533;51.090;17.216;2023-08-31T06:29:45;99398.41;;;15.15;92.06
79136;BME280;68533;51.090;17.216;2023-08-31T06:32:11;99405.06;;;15.14;91.50
79136;BME280;68533;51.090;17.216;2023-08-31T06:34:37;99411.22;;;15.86;89.27
79136;BME280;68533;51.090;17.216;2023-08-31T06:37:04;99410.09;;;16.96;83.90
79136;BME280;68533;51.090;17.216;2023-08-31T06:39:30;99404.09;;;17.62;81.47
79136;BME280;68533;51.090;17.216;2023-08-31T06:41:57;99400.28;;;17.55;80.26
79136;BME280;68533;51.090;17.216;2023-08-31T06:44:22;99406.72;;;18.34;79.38
79136;BME280;68533;51.090;17.216;2023-08-31T06:46:49;99410.44;;;18.22;76.64
79136;BME280;68533;51.090;17.216;2023-08-31T06:49:15;99410.94;;;18.75;75.11
79136;BME280;68533;51.090;17.216;2023-08-31T06:51:41;99413.09;;;18.66;75.73
79136;BME280;68533;51.090;17.216;2023-08-31T06:54:07;99419.53;;;19.05;72.87
79136;BME280;68533;51.090;17.216;2023-08-31T06:56:34;99414.91;;;18.27;74.87
79136;BME280;68533;51.090;17.216;2023-08-31T06:59:00;99416.84;;;19.08;73.43
79136;BME280;68533;51.090;17.216;2023-08-31T07:01:26;99422.97;;;19.52;73.21
79136;BME280;68533;51.090;17.216;2023-08-31T07:03:53;99424.03;;;19.09;71.71
79136;BME280;68533;51.090;17.216;2023-08-31T07:06:23;99418.63;;;19.35;68.74
79136;BME280;68533;51.090;17.216;2023-08-31T07:08:48;99422.13;;;19.48;70.27
79136;BME280;68533;51.090;17.216;2023-08-31T07:11:18;99431.25;;;19.68;68.97
79136;BME280;68533;51.090;17.216;2023-08-31T07:13:43;99426.03;;;20.31;66.40
79136;BME280;68533;51.090;17.216;2023-08-31T07:16:10;99424.97;;;20.88;67.56
79136;BME280;68533;51.090;17.216;2023-08-31T07:18:36;99426.22;;;20.65;66.12
79136;BME280;68533;51.090;17.216;2023-08-31T07:21:03;99427.41;;;21.50;65.72
79136;BME280;68533;51.090;17.216;2023-08-31T07:23:30;99430.91;;;21.40;64.28
79136;BME280;68533;51.090;17.216;2023-08-31T07:25:57;99430.94;;;21.43;63.42
79136;BME280;68533;51.090;17.216;2023-08-31T07:28:27;99435.88;;;21.57;62.56
79136;BME280;68533;51.090;17.216;2023-08-31T07:33:30;99449.88;;;21.57;62.08
79136;BME280;68533;51.090;17.216;2023-08-31T07:35:58;99453.56;;;20.10;65.99
79136;BME280;68533;51.090;17.216;2023-08-31T07:38:25;99451.66;;;19.53;68.51
79136;BME280;68533;51.090;17.216;2023-08-31T07:40:52;99455.72;;;18.85;69.32
79136;BME280;68533;51.090;17.216;2023-08-31T07:43:18;99463.28;;;18.69;71.51
79136;BME280;68533;51.090;17.216;2023-08-31T07:45:45;99461.22;;;18.19;73.81
79136;BME280;68533;51.090;17.216;2023-08-31T07:48:11;99467.84;;;17.99;74.48
79136;BME280;68533;51.090;17.216;2023-08-31T07:50:37;99472.78;;;18.05;76.02
79136;BME280;68533;51.090;17.216;2023-08-31T07:53:03;99471.78;;;17.98;73.89
79136;BME280;68533;51.090;17.216;2023-08-31T07:55:29;99477.97;;;17.91;75.46
79136;BME280;68533;51.090;17.216;2023-08-31T07:57:56;99466.94;;;17.95;76.28
79136;BME280;68533;51.090;17.216;2023-08-31T08:00:22;99473.41;;;17.99;75.15
79136;BME280;68533;51.090;17.216;2023-08-31T08:02:48;99472.75;;;17.90;75.76
79136;BME280;68533;51.090;17.216;2023-08-31T08:05:15;99473.47;;;17.87;75.52
79136;BME280;68533;51.090;17.216;2023-08-31T08:07:41;99475.91;;;18.04;75.20
79136;BME280;68533;51.090;17.216;2023-08-31T08:10:11;99468.63;;;18.58;72.03
79136;BME280;68533;51.090;17.216;2023-08-31T08:12:38;99480.13;;;19.08;71.60
79136;BME280;68533;51.090;17.216;2023-08-31T08:15:12;99481.75;;;19.63;67.06
79136;BME280;68533;51.090;17.216;2023-08-31T08:17:38;99480.75;;;19.36;69.80
79136;BME280;68533;51.090;17.216;2023-08-31T08:20:06;99486.28;;;20.78;66.29
79136;BME280;68533;51.090;17.216;2023-08-31T08:22:33;99490.25;;;20.77;66.23
79136;BME280;68533;51.090;17.216;2023-08-31T08:25:02;99487.09;;;19.91;67.59
79136;BME280;68533;51.090;17.216;2023-08-31T08:27:28;99494.59;;;19.48;67.67
79136;BME280;68533;51.090;17.216;2023-08-31T08:29:57;99482.34;;;19.18;67.99
79136;BME280;68533;51.090;17.216;2023-08-31T08:32:23;99484.09;;;18.91;68.41
79136;BME280;68533;51.090;17.216;2023-08-31T08:34:50;99483.13;;;19.34;67.94
79136;BME280;68533;51.090;17.216;2023-08-31T08:37:17;99493.56;;;19.75;66.58
79136;BME280;68533;51.090;17.216;2023-08-31T08:39:48;99499.13;;;20.82;64.52
79136;BME280;68533;51.090;17.216;2023-08-31T08:42:15;99502.09;;;21.46;62.67
79136;BME280;68533;51.090;17.216;2023-08-31T08:44:46;99501.53;;;20.84;63.42
79136;BME280;68533;51.090;17.216;2023-08-31T08:47:13;99499.59;;;19.77;66.16
79136;BME280;68533;51.090;17.216;2023-08-31T08:49:39;99501.63;;;19.81;69.26
79136;BME280;68533;51.090;17.216;2023-08-31T08:52:09;99502.03;;;19.25;68.25
79136;BME280;68533;51.090;17.216;2023-08-31T08:54:41;99498.94;;;18.95;69.63
79136;BME280;68533;51.090;17.216;2023-08-31T08:57:08;99510.81;;;18.76;71.90
79136;BME280;68533;51.090;17.216;2023-08-31T08:59:34;99508.94;;;18.65;72.28
79136;BME280;68533;51.090;17.216;2023-08-31T09:02:00;99515.63;;;18.32;73.46
79136;BME280;68533;51.090;17.216;2023-08-31T09:04:29;99513.97;;;18.00;77.77
79136;BME280;68533;51.090;17.216;2023-08-31T09:06:56;99519.69;;;17.63;78.78
79136;BME280;68533;51.090;17.216;2023-08-31T09:09:22;99511.84;;;17.41;79.30
79136;BME280;68533;51.090;17.216;2023-08-31T09:11:48;99527.16;;;17.23;81.11
79136;BME280;68533;51.090;17.216;2023-08-31T09:14:19;99530.19;;;17.05;81.00
79136;BME280;68533;51.090;17.216;2023-08-31T09:16:47;99525.22;;;16.99;80.77
79136;BME280;68533;51.090;17.216;2023-08-31T09:19:21;99539.22;;;16.78;82.54
79136;BME280;68533;51.090;17.216;2023-08-31T09:21:48;99542.00;;;16.66;83.18
79136;BME280;68533;51.090;17.216;2023-08-31T09:24:14;99547.06;;;16.52;82.64
79136;BME280;68533;51.090;17.216;2023-08-31T09:26:47;99550.34;;;16.33;82.38
79136;BME280;68533;51.090;17.216;2023-08-31T09:29:14;99563.06;;;16.22;83.45
79136;BME280;68533;51.090;17.216;2023-08-31T09:31:44;99567.94;;;16.04;81.63
79136;BME280;68533;51.090;17.216;2023-08-31T09:34:11;99564.84;;;16.06;82.05
79136;BME280;68533;51.090;17.216;2023-08-31T09:36:38;99572.38;;;16.17;82.05
79136;BME280;68533;51.090;17.216;2023-08-31T09:39:08;99582.69;;;15.96;80.76
79136;BME280;68533;51.090;17.216;2023-08-31T09:41:54;99585.16;;;15.77;80.05
79136;BME280;68533;51.090;17.216;2023-08-31T09:44:21;99587.72;;;15.61;79.42
79136;BME280;68533;51.090;17.216;2023-08-31T09:46:48;99596.72;;;15.49;78.81
79136;BME280;68533;51.090;17.216;2023-08-31T09:49:16;99597.19;;;15.31;78.86
79136;BME280;68533;51.090;17.216;2023-08-31T09:51:45;99600.63;;;15.28;80.23
79136;BME280;68533;51.090;17.216;2023-08-31T09:54:15;99611.81;;;15.10;79.62
79136;BME280;68533;51.090;17.216;2023-08-31T09:56:43;99602.56;;;14.98;81.92
79136;BME280;68533;51.090;17.216;2023-08-31T09:59:11;99615.97;;;14.96;81.29
79136;BME280;68533;51.090;17.216;2023-08-31T10:01:38;99614.97;;;14.92;82.35
79136;BME280;68533;51.090;17.216;2023-08-31T10:04:07;99619.72;;;14.91;83.11
79136;BME280;68533;51.090;17.216;2023-08-31T10:06:35;99629.66;;;14.84;84.17
79136;BME280;68533;51.090;17.216;2023-08-31T10:09:05;99631.84;;;14.61;84.40
79136;BME280;68533;51.090;17.216;2023-08-31T10:11:32;99630.41;;;14.55;85.68
79136;BME280;68533;51.090;17.216;2023-08-31T10:14:01;99636.47;;;14.40;85.75
79136;BME280;68533;51.090;17.216;2023-08-31T10:16:39;99646.72;;;14.39;86.05
79136;BME280;68533;51.090;17.216;2023-08-31T10:19:06;99645.41;;;14.36;86.04
79136;BME280;68533;51.090;17.216;2023-08-31T10:21:32;99638.41;;;14.39;84.73
79136;BME280;68533;51.090;17.216;2023-08-31T10:24:00;99647.84;;;14.47;86.36
79136;BME280;68533;51.090;17.216;2023-08-31T10:26:30;99646.50;;;14.61;85.78
79136;BME280;68533;51.090;17.216;2023-08-31T10:28:58;99654.66;;;14.58;84.09
79136;BME280;68533;51.090;17.216;2023-08-31T10:31:32;99653.16;;;14.69;83.49
79136;BME280;68533;51.090;17.216;2023-08-31T10:34:06;99651.19;;;14.78;82.63
79136;BME280;68533;51.090;17.216;2023-08-31T10:36:44;99659.31;;;14.83;83.66
79136;BME280;68533;51.090;17.216;2023-08-31T10:41:52;99655.56;;;14.88;83.91
79136;BME280;68533;51.090;17.216;2023-08-31T10:44:20;99655.00;;;15.03;84.09
79136;BME280;68533;51.090;17.216;2023-08-31T10:46:50;99657.94;;;14.98;84.08
79136;BME280;68533;51.090;17.216;2023-08-31T10:49:23;99662.84;;;14.92;83.63
79136;BME280;68533;51.090;17.216;2023-08-31T10:52:37;99658.47;;;14.91;83.16
79136;BME280;68533;51.090;17.216;2023-08-31T10:54:46;99663.47;;;14.98;84.39
79136;BME280;68533;51.090;17.216;2023-08-31T10:57:13;99654.97;;;15.11;83.79
79136;BME280;68533;51.090;17.216;2023-08-31T10:59:45;99657.16;;;15.27;83.29
79136;BME280;68533;51.090;17.216;2023-08-31T11:07:46;99663.53;;;16.40;78.49
79136;BME280;68533;51.090;17.216;2023-08-31T11:10:19;99649.91;;;16.67;78.06
79136;BME280;68533;51.090;17.216;2023-08-31T11:12:47;99651.00;;;16.87;77.04
79136;BME280;68533;51.090;17.216;2023-08-31T11:15:18;99647.66;;;17.30;76.61
79136;BME280;68533;51.090;17.216;2023-08-31T11:17:46;99643.63;;;17.16;75.11
79136;BME280;68533;51.090;17.216;2023-08-31T11:20:17;99655.50;;;19.63;67.47
79136;BME280;68533;51.090;17.216;2023-08-31T11:22:48;99651.91;;;20.36;62.73
79136;BME280;68533;51.090;17.216;2023-08-31T11:25:21;99644.19;;;21.37;62.62
79136;BME280;68533;51.090;17.216;2023-08-31T11:27:57;99645.78;;;19.92;61.96
79136;BME280;68533;51.090;17.216;2023-08-31T11:30:29;99622.84;;;19.48;64.55
79136;BME280;68533;51.090;17.216;2023-08-31T11:33:00;99634.50;;;20.43;63.21
79136;BME280;68533;51.090;17.216;2023-08-31T11:35:37;99629.91;;;20.96;57.47
79136;BME280;68533;51.090;17.216;2023-08-31T11:38:05;99628.81;;;21.76;54.42
79136;BME280;68533;51.090;17.216;2023-08-31T11:40:32;99636.69;;;22.27;55.05
79136;BME280;68533;51.090;17.216;2023-08-31T11:42:58;99633.81;;;22.20;54.10
79136;BME280;68533;51.090;17.216;2023-08-31T11:45:31;99634.72;;;21.97;55.74
79136;BME280;68533;51.090;17.216;2023-08-31T11:47:58;99623.03;;;21.92;55.67
79136;BME280;68533;51.090;17.216;2023-08-31T11:50:25;99626.50;;;22.12;53.65
79136;BME280;68533;51.090;17.216;2023-08-31T11:52:51;99633.31;;;22.44;52.81
79136;BME280;68533;51.090;17.216;2023-08-31T11:55:19;99631.13;;;22.64;51.44
79136;BME280;68533;51.090;17.216;2023-08-31T11:57:51;99633.63;;;22.35;51.31
79136;BME280;68533;51.090;17.216;2023-08-31T12:00:19;99632.19;;;22.86;49.55
79136;BME280;68533;51.090;17.216;2023-08-31T12:03:00;99628.78;;;22.69;49.95
79136;BME280;68533;51.090;17.216;2023-08-31T12:05:47;99624.81;;;23.11;47.07
79136;BME280;68533;51.090;17.216;2023-08-31T12:08:15;99624.88;;;23.18;48.24
79136;BME280;68533;51.090;17.216;2023-08-31T12:10:46;99631.41;;;22.52;48.79
79136;BME280;68533;51.090;17.216;2023-08-31T12:13:13;99635.56;;;23.05;48.13
79136;BME280;68533;51.090;17.216;2023-08-31T12:15:40;99638.28;;;22.61;48.33
79136;BME280;68533;51.090;17.216;2023-08-31T12:18:12;99633.44;;;22.92;50.18
79136;BME280;68533;51.090;17.216;2023-08-31T12:20:52;99629.81;;;22.88;48.91
79136;BME280;68533;51.090;17.216;2023-08-31T12:23:19;99629.50;;;22.96;47.62
79136;BME280;68533;51.090;17.216;2023-08-31T12:25:49;99633.41;;;22.88;50.31
79136;BME280;68533;51.090;17.216;2023-08-31T12:28:22;99625.81;;;23.36;48.00
79136;BME280;68533;51.090;17.216;2023-08-31T12:30:53;99629.88;;;21.42;52.55
79136;BME280;68533;51.090;17.216;2023-08-31T12:33:22;99625.22;;;20.00;57.09
79136;BME280;68533;51.090;17.216;2023-08-31T12:35:53;99624.72;;;19.60;57.66
79136;BME280;68533;51.090;17.216;2023-08-31T12:38:19;99616.34;;;19.44;57.96
79136;BME280;68533;51.090;17.216;2023-08-31T12:40:46;99629.59;;;19.31;59.97
79136;BME280;68533;51.090;17.216;2023-08-31T12:43:12;99615.59;;;18.96;59.92
79136;BME280;68533;51.090;17.216;2023-08-31T12:45:41;99612.00;;;18.80;59.93
79136;BME280;68533;51.090;17.216;2023-08-31T12:48:10;99615.78;;;18.88;60.38
79136;BME280;68533;51.090;17.216;2023-08-31T12:50:36;99611.53;;;18.94;60.77
79136;BME280;68533;51.090;17.216;2023-08-31T12:53:03;99612.25;;;19.07;60.87
79136;BME280;68533;51.090;17.216;2023-08-31T12:55:30;99618.47;;;19.00;61.36
79136;BME280;68533;51.090;17.216;2023-08-31T12:57:56;99609.63;;;19.14;59.53
79136;BME280;68533;51.090;17.216;2023-08-31T13:00:23;99619.91;;;19.25;61.24
79136;BME280;68533;51.090;17.216;2023-08-31T13:02:50;99619.88;;;19.41;60.10
79136;BME280;68533;51.090;17.216;2023-08-31T13:05:17;99623.28;;;19.85;60.71